Time;durP1;ratioP1;P1;durP2;ratioP2;P2;SDS_P1;SDS_P2;PMS_P1;PMS_P2;Temp;Humidity;BMP_temperature;BMP_pressure;BME280_temperature;BME280_humidity;BME280_pressure;Samples;Min_cycle;Max_cycle;Signal;HPM_P1;HPM_P2
2021/12/07 00:02:09;;;;;;;9.68;4.25;;;3.50;99.60;;;;;;5073688;28;20472;-76
2021/12/07 00:04:36;;;;;;;9.35;4.50;;;3.50;99.60;;;;;;5074046;28;20052;-76
2021/12/07 00:07:03;;;;;;;8.32;3.67;;;3.50;99.50;;;;;;5055651;28;20021;-76
2021/12/07 00:09:29;;;;;;;8.80;4.43;;;3.50;99.50;;;;;;5056077;28;20028;-75
2021/12/07 00:11:56;;;;;;;9.02;4.40;;;3.50;99.50;;;;;;5073423;28;20512;-76
2021/12/07 00:14:24;;;;;;;8.82;4.20;;;3.50;99.50;;;;;;5055606;28;20044;-76
2021/12/07 00:16:53;;;;;;;7.30;3.70;;;3.50;99.50;;;;;;5055441;28;20525;-75
2021/12/07 00:19:19;;;;;;;6.20;3.60;;;3.60;99.40;;;;;;5073721;28;20036;-76
2021/12/07 00:21:47;;;;;;;7.05;3.67;;;3.50;99.40;;;;;;5073326;28;20056;-75
2021/12/07 00:24:14;;;;;;;6.60;3.70;;;3.50;99.40;;;;;;5073716;28;20020;-75
2021/12/07 00:26:42;;;;;;;6.43;3.13;;;3.50;99.40;;;;;;5073617;28;20020;-75
2021/12/07 00:29:10;;;;;;;6.68;3.40;;;3.50;99.40;;;;;;5072936;28;20078;-75
2021/12/07 00:31:43;;;;;;;6.78;3.80;;;3.50;99.30;;;;;;5073597;28;20024;-76
2021/12/07 00:36:41;;;;;;;8.02;3.78;;;3.50;99.40;;;;;;5073544;28;20024;-76
2021/12/07 00:39:07;;;;;;;7.25;3.55;;;3.50;99.50;;;;;;5072603;28;20532;-76
2021/12/07 00:41:34;;;;;;;5.57;2.88;;;3.50;99.50;;;;;;5073362;28;20020;-76
2021/12/07 00:44:02;;;;;;;5.53;2.88;;;3.50;99.60;;;;;;5054841;28;20055;-76
2021/12/07 00:46:28;;;;;;;9.85;4.53;;;3.50;99.60;;;;;;5055241;28;20063;-76
2021/12/07 00:48:53;;;;;;;6.63;2.88;;;3.50;99.50;;;;;;5072442;28;20039;-75
2021/12/07 00:51:19;;;;;;;6.95;3.63;;;3.50;99.50;;;;;;5055501;28;20031;-76
2021/12/07 00:53:45;;;;;;;7.22;3.90;;;3.50;99.50;;;;;;5073446;28;20455;-75
2021/12/07 00:56:11;;;;;;;6.15;3.65;;;3.50;99.60;;;;;;5072559;28;20016;-75
2021/12/07 00:58:36;;;;;;;6.82;3.53;;;3.50;99.70;;;;;;5054845;28;20112;-78
2021/12/07 01:01:10;;;;;;;7.93;3.83;;;3.50;99.90;;;;;;5072565;28;20380;-75
2021/12/07 01:03:36;;;;;;;8.48;4.05;;;3.50;99.80;;;;;;5055181;28;20480;-75
2021/12/07 01:24:56;;;;;;;6.78;3.78;;;3.50;99.80;;;;;;5072328;28;20130;-75
2021/12/07 01:27:23;;;;;;;6.72;3.50;;;3.50;99.80;;;;;;5072563;28;20024;-76
2021/12/07 01:30:03;;;;;;;8.40;4.10;;;3.50;99.80;;;;;;5054759;28;20021;-76
2021/12/07 01:40:43;;;;;;;7.55;4.20;;;3.50;99.70;;;;;;5072486;28;20064;-76
2021/12/07 02:01:54;;;;;;;6.82;3.72;;;3.50;99.80;;;;;;5072311;28;20505;-75
2021/12/07 02:04:19;;;;;;;9.88;4.60;;;3.50;99.80;;;;;;5054176;28;20201;-76
2021/12/07 02:06:45;;;;;;;8.20;4.95;;;3.40;99.80;;;;;;5072375;28;20020;-75
2021/12/07 02:09:12;;;;;;;8.70;4.85;;;3.40;99.80;;;;;;5053368;28;20029;-75
2021/12/07 02:11:45;;;;;;;10.20;5.22;;;3.50;99.90;;;;;;5071767;28;20427;-75
2021/12/07 02:14:17;;;;;;;9.50;4.75;;;3.50;99.80;;;;;;5071758;28;20065;-76
2021/12/07 02:16:46;;;;;;;10.23;5.38;;;3.40;99.80;;;;;;5054057;28;20036;-76
2021/12/07 02:19:12;;;;;;;11.15;5.68;;;3.30;99.90;;;;;;5053377;28;20025;-76
2021/12/07 02:21:37;;;;;;;10.82;6.22;;;3.40;99.90;;;;;;5074393;28;20111;-76
2021/12/07 02:24:03;;;;;;;10.02;6.20;;;3.40;99.90;;;;;;5057580;28;20427;-75
2021/12/07 02:26:29;;;;;;;10.13;5.78;;;3.40;99.90;;;;;;5076024;28;20029;-76
2021/12/07 02:28:57;;;;;;;11.70;5.55;;;3.40;99.90;;;;;;5075461;28;20028;-75
2021/12/07 02:31:23;;;;;;;10.13;5.82;;;3.40;99.90;;;;;;5076051;28;20021;-78
2021/12/07 02:33:49;;;;;;;10.25;5.43;;;3.40;99.90;;;;;;5075874;28;20027;-77
2021/12/07 02:36:15;;;;;;;10.77;5.95;;;3.40;99.90;;;;;;5075386;28;20273;-76
2021/12/07 02:38:41;;;;;;;10.38;5.43;;;3.40;99.90;;;;;;5075703;28;20020;-76
2021/12/07 02:41:07;;;;;;;10.77;6.30;;;3.30;99.90;;;;;;5057193;28;20036;-76
2021/12/07 02:43:33;;;;;;;9.13;4.90;;;3.30;99.90;;;;;;5057762;28;20061;-76
2021/12/07 02:45:59;;;;;;;12.43;6.63;;;3.30;99.90;;;;;;5075149;28;20020;-76
2021/12/07 02:48:24;;;;;;;10.05;5.70;;;3.30;99.90;;;;;;5057483;28;20110;-76
2021/12/07 02:50:51;;;;;;;11.30;5.75;;;3.30;99.90;;;;;;5057602;28;20445;-76
2021/12/07 02:53:22;;;;;;;9.65;5.65;;;3.30;99.90;;;;;;5074763;28;20383;-76
2021/12/07 02:55:48;;;;;;;11.70;6.18;;;3.30;99.90;;;;;;5057584;28;20120;-76
2021/12/07 02:58:14;;;;;;;12.98;6.47;;;3.30;99.90;;;;;;5074643;28;20036;-76
2021/12/07 03:00:47;;;;;;;14.88;6.72;;;3.40;99.90;;;;;;5056846;28;20052;-76
2021/12/07 03:03:14;;;;;;;10.55;5.53;;;3.30;99.90;;;;;;5056799;28;20107;-76
2021/12/07 03:08:50;;;;;;;11.60;6.53;;;3.30;99.90;;;;;;5074579;28;20029;-76
2021/12/07 03:27:39;;;;;;;11.18;6.38;;;3.20;99.90;;;;;;5074844;28;20089;-76
2021/12/07 03:30:06;;;;;;;10.60;5.90;;;3.20;99.90;;;;;;5056228;28;20456;-76
2021/12/07 03:32:31;;;;;;;10.73;6.18;;;3.20;99.90;;;;;;5073841;28;20020;-76
2021/12/07 03:34:57;;;;;;;13.40;6.57;;;3.20;99.90;;;;;;5074600;28;20028;-76
2021/12/07 03:37:23;;;;;;;10.30;5.95;;;3.20;99.90;;;;;;5074141;28;20096;-76
2021/12/07 03:39:49;;;;;;;12.48;6.57;;;3.20;99.90;;;;;;5056498;28;20159;-76
2021/12/07 03:42:15;;;;;;;12.93;6.57;;;3.20;99.90;;;;;;5074130;28;20233;-76
2021/12/07 03:44:40;;;;;;;10.07;5.70;;;3.20;99.90;;;;;;5074464;28;20105;-76
2021/12/07 03:47:06;;;;;;;12.15;5.78;;;3.20;99.90;;;;;;5074202;28;20473;-76
2021/12/07 03:49:32;;;;;;;10.80;6.05;;;3.20;99.90;;;;;;5074159;28;20031;-76
2021/12/07 03:51:57;;;;;;;10.30;5.95;;;3.20;99.90;;;;;;5074341;28;20059;-76
2021/12/07 03:54:23;;;;;;;10.60;5.65;;;3.20;99.90;;;;;;5073862;28;20086;-76
2021/12/07 03:56:49;;;;;;;11.20;5.78;;;3.20;99.90;;;;;;5074276;28;20449;-76
2021/12/07 03:59:15;;;;;;;11.32;6.20;;;3.20;99.90;;;;;;5055496;28;20040;-76
2021/12/07 04:01:41;;;;;;;11.95;6.20;;;3.20;99.90;;;;;;5056263;28;20086;-77
2021/12/07 04:04:08;;;;;;;11.63;5.47;;;3.20;99.90;;;;;;5073907;28;20036;-76
2021/12/07 04:06:34;;;;;;;12.23;6.63;;;3.20;99.90;;;;;;5074059;28;20029;-77
2021/12/07 04:09:00;;;;;;;13.85;6.63;;;3.20;99.90;;;;;;5074046;28;20082;-77
2021/12/07 04:11:26;;;;;;;13.25;6.32;;;3.30;99.90;;;;;;5073825;28;20330;-77
2021/12/07 04:13:51;;;;;;;11.93;6.05;;;3.30;99.90;;;;;;5073947;28;20052;-77
2021/12/07 04:16:18;;;;;;;13.57;6.05;;;3.30;99.90;;;;;;5073462;28;20449;-76
2021/12/07 04:18:44;;;;;;;9.98;5.55;;;3.30;99.90;;;;;;5073868;28;20024;-77
2021/12/07 04:21:10;;;;;;;9.88;5.53;;;3.30;99.90;;;;;;5072943;28;20377;-76
2021/12/07 04:23:36;;;;;;;12.73;5.35;;;3.40;99.90;;;;;;5073745;28;20028;-76
2021/12/07 04:26:06;;;;;;;12.82;5.53;;;3.40;99.90;;;;;;5073674;28;20032;-77
2021/12/07 04:28:32;;;;;;;10.63;5.30;;;3.50;99.90;;;;;;5055704;28;20013;-76
2021/12/07 04:30:58;;;;;;;11.18;5.80;;;3.50;99.90;;;;;;5073547;28;20035;-74
2021/12/07 04:33:24;;;;;;;8.93;4.85;;;3.50;99.90;;;;;;5077124;28;20077;-78
2021/12/07 04:35:50;;;;;;;13.70;6.00;;;3.50;99.90;;;;;;5080400;28;20035;-77
2021/12/07 04:38:17;;;;;;;12.38;5.50;;;3.60;99.90;;;;;;5071239;28;20036;-77
2021/12/07 04:40:44;;;;;;;10.13;5.50;;;3.50;99.90;;;;;;5072520;28;20081;-77
2021/12/07 04:43:10;;;;;;;9.80;5.50;;;3.60;99.90;;;;;;5072039;28;20424;-77
2021/12/07 04:58:52;;;;;;;7.47;3.97;;;3.50;99.90;;;;;;5072779;28;20039;-76
2021/12/07 05:01:18;;;;;;;7.82;3.90;;;3.40;99.90;;;;;;5054176;28;20032;-77
2021/12/07 05:03:45;;;;;;;10.00;4.50;;;3.50;99.90;;;;;;5072934;28;20021;-77
2021/12/07 05:06:13;;;;;;;8.57;4.10;;;3.40;99.90;;;;;;5072369;28;20021;-76
2021/12/07 05:08:43;;;;;;;10.50;4.63;;;3.40;99.90;;;;;;5072575;28;20021;-77
2021/12/07 05:13:50;;;;;;;7.50;2.90;;;3.40;99.90;;;;;;5072758;28;20033;-77
2021/12/07 05:16:42;;;;;;;8.73;3.08;;;3.50;99.90;;;;;;5054422;28;20368;-77
2021/12/07 05:23:54;;;;;;;10.68;3.03;;;3.40;99.90;;;;;;5072043;28;20020;-76
2021/12/07 05:24:51;;;;;;;7.47;2.95;;;3.50;99.90;;;;;;5072294;28;20154;-76
2021/12/07 05:38:14;;;;;;;7.18;2.78;;;3.70;99.90;;;;;;5071090;28;20071;-77
2021/12/07 05:40:40;;;;;;;4.65;2.40;;;3.70;99.90;;;;;;5069801;28;20485;-77
2021/12/07 05:43:06;;;;;;;6.18;3.20;;;3.70;99.90;;;;;;5053974;28;20024;-75
2021/12/07 05:45:35;;;;;;;12.32;3.40;;;3.60;99.90;;;;;;5067549;28;20032;-76
2021/12/07 05:48:04;;;;;;;6.93;3.35;;;3.60;99.90;;;;;;5064635;28;20091;-76
2021/12/07 05:50:32;;;;;;;8.10;3.72;;;3.60;99.90;;;;;;5069944;28;20619;-77
2021/12/07 05:52:59;;;;;;;7.95;3.45;;;3.60;99.90;;;;;;5072016;28;20017;-77
2021/12/07 05:55:25;;;;;;;6.63;2.83;;;3.60;99.90;;;;;;5053614;28;20028;-77
2021/12/07 05:57:51;;;;;;;9.38;3.42;;;3.60;99.90;;;;;;5072052;28;20042;-77
2021/12/07 06:00:25;;;;;;;8.82;3.58;;;3.60;99.90;;;;;;5071372;28;20122;-77
2021/12/07 06:03:04;;;;;;;12.23;3.42;;;3.60;99.90;;;;;;5071794;28;20078;-76
2021/12/07 06:05:32;;;;;;;9.30;3.50;;;3.60;99.90;;;;;;5070463;28;20302;-76
2021/12/07 06:07:57;;;;;;;9.20;3.38;;;3.60;99.90;;;;;;5072114;28;20028;-76
2021/12/07 06:10:24;;;;;;;8.15;3.72;;;3.70;99.90;;;;;;5053526;28;20020;-76
2021/12/07 06:12:49;;;;;;;9.48;3.97;;;3.70;99.90;;;;;;5072061;28;20031;-77
2021/12/07 06:15:19;;;;;;;11.90;4.47;;;3.70;99.90;;;;;;5071580;28;20100;-77
2021/12/07 06:17:45;;;;;;;11.32;4.18;;;3.70;99.90;;;;;;5071834;28;20059;-77
2021/12/07 06:20:11;;;;;;;11.48;4.85;;;3.70;99.90;;;;;;5071566;28;20064;-77
2021/12/07 06:22:37;;;;;;;11.60;4.95;;;3.70;99.90;;;;;;5053896;28;20129;-77
2021/12/07 06:25:03;;;;;;;6.45;2.85;;;3.70;99.90;;;;;;5072266;28;20424;-77
2021/12/07 06:27:29;;;;;;;9.52;4.32;;;3.60;99.90;;;;;;5071120;28;20392;-76
2021/12/07 06:29:55;;;;;;;7.07;3.67;;;3.70;99.90;;;;;;5071608;28;20028;-76
2021/12/07 06:32:20;;;;;;;9.18;4.10;;;3.70;99.90;;;;;;5071408;28;20032;-77
2021/12/07 06:34:46;;;;;;;6.95;3.78;;;3.80;99.90;;;;;;5071697;28;20155;-76
2021/12/07 06:37:12;;;;;;;5.90;3.13;;;3.80;99.90;;;;;;5071797;28;20424;-76
2021/12/07 06:39:37;;;;;;;6.22;3.65;;;3.80;99.90;;;;;;5071745;28;20380;-76
2021/12/07 06:42:04;;;;;;;6.85;3.60;;;3.70;99.90;;;;;;5071766;28;20027;-76
2021/12/07 06:44:29;;;;;;;8.63;3.50;;;3.80;99.90;;;;;;5071229;28;20078;-76
2021/12/07 06:46:55;;;;;;;10.40;3.15;;;3.90;99.90;;;;;;5071699;28;20012;-77
2021/12/07 06:49:21;;;;;;;11.35;3.25;;;3.90;99.90;;;;;;5071058;28;20037;-76
2021/12/07 06:51:48;;;;;;;5.78;3.13;;;3.90;99.90;;;;;;5053512;28;20186;-77
2021/12/07 06:54:14;;;;;;;9.20;3.50;;;4.00;99.90;;;;;;5071320;28;20020;-76
2021/12/07 06:56:40;;;;;;;9.32;3.75;;;3.90;99.90;;;;;;5071561;28;20210;-77
2021/12/07 06:59:06;;;;;;;8.18;4.22;;;3.80;99.90;;;;;;5071778;28;20069;-77
2021/12/07 07:01:32;;;;;;;8.18;3.25;;;3.80;99.90;;;;;;5071134;28;20028;-77
2021/12/07 07:03:59;;;;;;;9.32;3.65;;;3.70;99.90;;;;;;5071387;28;20404;-77
2021/12/07 07:06:25;;;;;;;9.55;3.72;;;3.70;99.90;;;;;;5071349;28;20033;-77
2021/12/07 07:08:50;;;;;;;10.00;3.83;;;3.70;99.90;;;;;;5057066;28;20035;-77
2021/12/07 07:11:17;;;;;;;6.07;3.22;;;3.60;99.90;;;;;;5074576;28;20040;-75
2021/12/07 07:13:44;;;;;;;13.45;3.80;;;3.60;99.90;;;;;;5075020;28;20024;-76
2021/12/07 07:16:10;;;;;;;9.30;3.45;;;3.60;99.90;;;;;;5056868;28;20028;-76
2021/12/07 07:18:35;;;;;;;7.78;4.20;;;3.60;99.90;;;;;;5074791;28;20039;-76
2021/12/07 07:21:02;;;;;;;5.95;3.47;;;3.60;99.90;;;;;;5056977;28;20036;-76
2021/12/07 07:23:29;;;;;;;11.57;3.00;;;3.60;99.90;;;;;;5074647;28;20035;-76
2021/12/07 07:25:55;;;;;;;9.38;3.20;;;3.60;99.90;;;;;;5074482;28;20168;-77
2021/12/07 07:28:29;;;;;;;8.82;3.78;;;3.60;99.90;;;;;;5074249;28;20587;-76
2021/12/07 07:30:56;;;;;;;9.48;4.07;;;3.60;99.90;;;;;;5074645;28;20035;-75
2021/12/07 07:33:22;;;;;;;4.97;2.72;;;3.60;99.90;;;;;;5073905;28;20357;-78
2021/12/07 07:35:48;;;;;;;8.07;3.25;;;3.60;99.90;;;;;;5074804;28;20028;-76
2021/12/07 07:38:15;;;;;;;7.45;3.67;;;3.60;99.90;;;;;;5073223;28;20013;-76
2021/12/07 07:40:44;;;;;;;8.70;3.53;;;3.60;99.90;;;;;;5055961;28;20522;-77
2021/12/07 07:43:10;;;;;;;8.25;3.05;;;3.60;99.90;;;;;;5056516;28;20035;-76
2021/12/07 07:45:36;;;;;;;10.32;3.10;;;3.60;99.90;;;;;;5074117;28;20074;-76
2021/12/07 07:48:02;;;;;;;6.82;3.30;;;3.60;99.90;;;;;;5074456;28;20020;-77
2021/12/07 07:50:28;;;;;;;11.50;3.60;;;3.60;99.90;;;;;;5072691;28;20028;-77
2021/12/07 07:52:54;;;;;;;4.63;3.05;;;3.60;99.90;;;;;;5074759;28;20480;-78
2021/12/07 07:55:20;;;;;;;7.53;3.03;;;3.60;99.90;;;;;;5055817;28;20056;-77
2021/12/07 07:57:46;;;;;;;5.47;3.13;;;3.60;99.90;;;;;;5056182;28;20059;-77
2021/12/07 08:00:16;;;;;;;8.77;3.42;;;3.60;99.90;;;;;;5073960;28;20448;-77
2021/12/07 08:02:42;;;;;;;6.13;2.88;;;3.60;99.90;;;;;;5073574;28;20074;-78
2021/12/07 08:05:08;;;;;;;9.75;3.45;;;3.60;99.90;;;;;;5074113;28;20027;-77
2021/12/07 08:07:34;;;;;;;8.77;3.30;;;3.60;99.90;;;;;;5073774;28;20021;-78
2021/12/07 08:10:00;;;;;;;6.20;2.60;;;3.70;99.90;;;;;;5074125;28;20062;-77
2021/12/07 08:12:25;;;;;;;5.97;3.05;;;3.60;99.90;;;;;;5073103;28;20099;-77
2021/12/07 08:14:52;;;;;;;13.75;3.58;;;3.70;99.90;;;;;;5055832;28;20461;-78
2021/12/07 08:17:17;;;;;;;13.40;3.50;;;3.70;99.90;;;;;;5073470;28;20033;-77
2021/12/07 08:19:43;;;;;;;5.97;3.03;;;3.70;99.90;;;;;;5073298;28;20460;-77
2021/12/07 08:22:08;;;;;;;9.70;3.25;;;3.70;99.90;;;;;;5055669;28;20024;-78
2021/12/07 08:24:34;;;;;;;8.57;2.65;;;3.70;99.90;;;;;;5073043;28;20107;-78
2021/12/07 08:27:00;;;;;;;8.55;2.75;;;3.80;99.90;;;;;;5055614;28;20024;-78
2021/12/07 08:29:25;;;;;;;7.60;2.80;;;3.80;99.90;;;;;;5055139;28;20465;-78
2021/12/07 08:31:51;;;;;;;5.68;2.28;;;3.80;99.90;;;;;;5072117;28;20074;-77
2021/12/07 08:34:17;;;;;;;3.00;1.83;;;3.80;99.90;;;;;;5073470;28;20027;-78
2021/12/07 08:36:43;;;;;;;9.10;2.70;;;3.80;99.90;;;;;;5054808;28;20025;-77
2021/12/07 08:39:09;;;;;;;4.28;2.15;;;3.90;99.90;;;;;;5073609;28;20031;-77
2021/12/07 08:41:35;;;;;;;7.97;2.72;;;3.80;99.90;;;;;;5072826;28;20051;-76
2021/12/07 08:44:01;;;;;;;6.32;2.47;;;3.80;99.90;;;;;;5055470;28;20016;-76
2021/12/07 08:46:27;;;;;;;5.68;2.58;;;3.90;99.90;;;;;;5072572;28;20025;-76
2021/12/07 08:48:53;;;;;;;5.63;2.75;;;3.90;99.90;;;;;;5073173;28;20021;-77
2021/12/07 08:51:18;;;;;;;9.25;2.80;;;3.90;99.90;;;;;;5072849;28;20032;-76
2021/12/07 08:53:53;;;;;;;6.80;3.50;;;3.90;99.90;;;;;;5072494;28;20032;-76
2021/12/07 09:01:50;;;;;;;10.70;3.65;;;3.90;99.90;;;;;;5073194;28;20063;-77
2021/12/07 09:04:17;;;;;;;8.20;3.35;;;3.90;99.90;;;;;;5055024;28;20033;-78
2021/12/07 09:06:48;;;;;;;6.82;3.47;;;3.90;99.90;;;;;;5072310;28;20029;-78
2021/12/07 09:09:14;;;;;;;13.30;4.10;;;3.90;99.90;;;;;;5073071;28;20021;-78
2021/12/07 09:11:41;;;;;;;11.15;3.92;;;3.90;99.90;;;;;;5072188;28;20472;-78
2021/12/07 09:14:10;;;;;;;11.57;4.10;;;4.00;99.90;;;;;;5072574;28;20035;-77
2021/12/07 09:16:36;;;;;;;13.55;4.20;;;4.00;99.90;;;;;;5054190;28;20021;-77
2021/12/07 09:19:03;;;;;;;7.95;2.92;;;4.10;99.90;;;;;;5072602;28;20150;-78
2021/12/07 09:21:29;;;;;;;12.77;4.18;;;4.10;99.90;;;;;;5071750;28;20032;-77
2021/12/07 09:23:54;;;;;;;9.05;4.00;;;4.10;99.90;;;;;;5054483;28;20032;-77
2021/12/07 09:26:20;;;;;;;15.38;4.65;;;4.10;99.90;;;;;;5072085;28;20035;-77
2021/12/07 09:28:46;;;;;;;10.10;5.22;;;4.10;99.90;;;;;;5071982;28;20530;-77
2021/12/07 09:31:13;;;;;;;11.75;4.60;;;4.10;99.90;;;;;;5054139;28;20115;-77
2021/12/07 09:33:41;;;;;;;9.48;4.90;;;4.10;99.90;;;;;;5071768;28;20067;-77
2021/12/07 09:36:08;;;;;;;10.30;4.50;;;4.10;99.90;;;;;;5071062;28;20107;-77
2021/12/07 09:38:35;;;;;;;9.57;4.35;;;4.10;99.90;;;;;;5071990;28;20484;-77
2021/12/07 09:41:03;;;;;;;15.82;4.53;;;4.20;99.90;;;;;;5054342;28;20029;-77
2021/12/07 09:43:30;;;;;;;10.18;5.38;;;4.30;99.90;;;;;;5071554;28;20074;-77
2021/12/07 09:45:56;;;;;;;11.57;6.00;;;4.30;99.90;;;;;;5053943;28;20050;-77
2021/12/07 09:48:21;;;;;;;12.55;6.30;;;4.30;99.90;;;;;;5072309;28;20021;-76
2021/12/07 09:50:51;;;;;;;14.43;4.97;;;4.40;99.90;;;;;;5071880;28;20112;-77
2021/12/07 09:53:17;;;;;;;9.80;4.88;;;4.50;99.90;;;;;;5072155;28;20103;-78
2021/12/07 09:55:44;;;;;;;13.93;5.45;;;4.50;99.90;;;;;;5053666;28;20500;-77
2021/12/07 09:58:10;;;;;;;13.75;4.93;;;4.60;99.90;;;;;;5072075;28;20043;-76
2021/12/07 10:00:37;;;;;;;11.63;5.20;;;4.70;99.90;;;;;;5071594;28;20045;-76
2021/12/07 10:03:03;;;;;;;8.45;5.35;;;4.70;99.90;;;;;;5071871;28;20478;-76
2021/12/07 10:05:31;;;;;;;15.65;5.30;;;4.80;99.90;;;;;;5071381;28;20419;-77
2021/12/07 10:07:58;;;;;;;12.32;5.32;;;4.70;99.90;;;;;;5072031;28;20021;-77
2021/12/07 10:10:30;;;;;;;11.40;4.80;;;4.80;99.90;;;;;;5071969;28;20025;-77
2021/12/07 10:12:56;;;;;;;9.43;5.30;;;4.80;99.90;;;;;;5053955;28;20031;-77
2021/12/07 10:15:23;;;;;;;8.85;4.60;;;4.80;99.90;;;;;;5072157;28;20026;-77
2021/12/07 10:18:19;;;;;;;13.07;4.97;;;4.70;99.90;;;;;;5053450;28;20024;-77
2021/12/07 10:20:58;;;;;;;14.90;5.50;;;4.70;99.90;;;;;;5045077;28;20094;-77
2021/12/07 10:23:38;;;;;;;10.77;5.40;;;4.70;99.90;;;;;;5054025;28;20448;-77
2021/12/07 10:26:22;;;;;;;13.52;5.15;;;4.70;99.90;;;;;;5071875;28;20031;-77
2021/12/07 10:28:55;;;;;;;10.00;4.38;;;4.70;99.90;;;;;;5071364;28;20106;-77
2021/12/07 10:31:35;;;;;;;12.40;5.55;;;4.70;99.90;;;;;;5070478;28;20388;-78
2021/12/07 10:34:06;;;;;;;11.88;4.22;;;4.70;99.90;;;;;;5071997;28;20029;-77
2021/12/07 10:36:42;;;;;;;12.63;4.82;;;4.80;99.90;;;;;;5071611;28;20147;-77
2021/12/07 10:39:14;;;;;;;11.25;5.03;;;4.80;99.90;;;;;;5053592;28;20449;-77
2021/12/07 10:41:51;;;;;;;10.00;5.07;;;4.80;99.90;;;;;;5071548;28;20020;-77
2021/12/07 10:44:22;;;;;;;11.38;5.32;;;4.90;99.90;;;;;;5075550;28;20472;-77
2021/12/07 10:46:54;;;;;;;10.15;4.55;;;4.90;99.90;;;;;;5073814;28;20021;-77
2021/12/07 10:49:38;;;;;;;8.05;3.80;;;5.00;99.90;;;;;;5057474;28;20020;-78
2021/12/07 10:52:28;;;;;;;14.40;4.82;;;5.10;99.90;;;;;;5075411;28;20044;-77
2021/12/07 10:55:15;;;;;;;11.25;4.38;;;5.20;99.90;;;;;;5069549;28;20040;-77
2021/12/07 10:57:50;;;;;;;11.05;3.92;;;5.20;99.90;;;;;;5074549;28;20349;-77
2021/12/07 11:00:36;;;;;;;8.93;4.35;;;5.30;99.90;;;;;;5075150;28;20053;-78
2021/12/07 11:03:09;;;;;;;10.32;4.45;;;5.30;99.90;;;;;;5075223;28;20035;-77
2021/12/07 11:05:36;;;;;;;9.88;4.55;;;5.40;99.90;;;;;;5074841;28;20082;-77
2021/12/07 11:08:05;;;;;;;9.10;4.03;;;5.50;99.90;;;;;;5074921;28;20103;-77
2021/12/07 11:10:34;;;;;;;9.55;3.40;;;5.60;99.90;;;;;;5075151;28;20481;-77
2021/12/07 11:13:15;;;;;;;8.45;3.90;;;5.70;99.90;;;;;;5075074;28;20021;-77
2021/12/07 11:15:52;;;;;;;6.35;3.28;;;5.70;99.90;;;;;;5074649;28;20078;-77
2021/12/07 11:18:29;;;;;;;7.00;3.72;;;5.90;99.90;;;;;;5074902;28;20392;-77
2021/12/07 11:21:00;;;;;;;6.28;3.50;;;6.00;99.90;;;;;;5074458;28;20032;-77
2021/12/07 11:23:35;;;;;;;11.93;3.58;;;6.10;99.90;;;;;;5074967;28;20028;-76
2021/12/07 11:31:41;;;;;;;12.13;4.15;;;6.40;99.70;;;;;;4992569;28;20385;-77
2021/12/07 11:34:19;;;;;;;13.43;3.78;;;6.50;99.70;;;;;;5060045;28;20037;-77
2021/12/07 11:36:51;;;;;;;13.73;3.90;;;6.50;99.60;;;;;;5073994;28;20025;-77
2021/12/07 11:39:22;;;;;;;6.18;3.20;;;6.60;99.60;;;;;;5074705;28;20021;-77
2021/12/07 11:41:51;;;;;;;;;;;6.60;99.60;;;;;;5074761;28;20148;-77
2021/12/07 11:44:19;;;;;;;6.97;3.30;;;6.60;99.40;;;;;;5074420;28;19904;-77
2021/12/07 11:46:49;;;;;;;8.32;3.60;;;6.60;99.40;;;;;;5074323;28;20020;-77
2021/12/07 11:49:22;;;;;;;8.45;3.88;;;6.60;99.50;;;;;;5074385;28;20027;-78
2021/12/07 11:51:50;;;;;;;8.77;3.45;;;6.60;99.50;;;;;;5055854;28;20093;-77
2021/12/07 11:54:17;;;;;;;8.88;3.70;;;6.60;99.50;;;;;;5074010;28;20096;-78
2021/12/07 11:56:44;;;;;;;5.80;3.00;;;6.60;99.50;;;;;;5073730;28;20115;-77
2021/12/07 11:59:12;;;;;;;8.48;3.72;;;6.60;99.50;;;;;;5055858;28;20074;-78
2021/12/07 12:01:39;;;;;;;7.45;3.38;;;6.60;99.50;;;;;;5052090;28;20445;-77
2021/12/07 12:04:05;;;;;;;7.80;3.20;;;6.60;99.40;;;;;;5053959;28;20025;-78
2021/12/07 12:06:32;;;;;;;8.68;3.92;;;6.60;99.40;;;;;;5054159;28;20071;-77
2021/12/07 12:08:58;;;;;;;8.63;3.88;;;6.50;99.30;;;;;;5068890;28;20029;-77
2021/12/07 12:11:44;;;;;;;9.25;3.55;;;6.50;99.30;;;;;;5053643;28;20392;-77
2021/12/07 12:14:40;;;;;;;9.25;3.30;;;6.50;99.30;;;;;;5052705;28;20044;-77
2021/12/07 12:17:12;;;;;;;8.52;3.13;;;6.40;99.20;;;;;;5053586;28;20472;-77
2021/12/07 12:20:01;;;;;;;7.03;3.15;;;6.40;99.10;;;;;;5053365;28;20021;-76
2021/12/07 12:22:52;;;;;;;6.35;3.00;;;6.30;99.20;;;;;;5052498;28;20413;-77
2021/12/07 12:25:21;;;;;;;7.97;3.28;;;6.30;99.20;;;;;;5053928;28;20013;-77
2021/12/07 12:27:49;;;;;;;9.52;2.78;;;6.40;99.20;;;;;;5053370;28;20064;-77
2021/12/07 12:30:34;;;;;;;8.98;3.47;;;6.40;99.20;;;;;;5052264;28;20029;-77
2021/12/07 12:33:08;;;;;;;7.35;3.55;;;6.40;99.20;;;;;;5051676;28;20104;-76
2021/12/07 12:35:42;;;;;;;5.32;2.90;;;6.40;99.10;;;;;;5052117;28;20461;-76
2021/12/07 12:38:25;;;;;;;7.10;3.08;;;6.40;99.10;;;;;;5053487;28;20025;-76
2021/12/07 12:41:01;;;;;;;7.97;3.25;;;6.40;99.20;;;;;;5051528;28;20519;-76
2021/12/07 12:43:44;;;;;;;8.50;3.20;;;6.40;99.10;;;;;;5053425;28;20032;-76
2021/12/07 12:46:13;;;;;;;9.80;3.58;;;6.40;99.10;;;;;;5053338;28;20446;-77
2021/12/07 12:48:45;;;;;;;10.48;3.00;;;6.40;99.10;;;;;;5067773;28;20020;-76
2021/12/07 12:51:11;;;;;;;4.25;2.30;;;6.40;99.10;;;;;;5053116;28;20094;-77
2021/12/07 12:53:36;;;;;;;11.35;2.97;;;6.50;99.20;;;;;;5053264;28;20021;-77
2021/12/07 12:56:07;;;;;;;8.57;3.33;;;6.50;99.10;;;;;;5052698;28;20515;-77
2021/12/07 12:58:37;;;;;;;5.57;2.38;;;6.40;99.00;;;;;;5053198;28;20051;-77
2021/12/07 13:01:21;;;;;;;8.50;3.17;;;6.50;99.10;;;;;;5051021;28;20076;-77
2021/12/07 13:04:07;;;;;;;8.05;2.70;;;6.40;99.10;;;;;;5051276;28;20060;-77
2021/12/07 13:06:33;;;;;;;5.60;3.00;;;6.40;99.10;;;;;;5052619;28;20025;-77
2021/12/07 13:09:09;;;;;;;6.10;2.58;;;6.40;99.10;;;;;;5052561;28;20162;-77
2021/12/07 13:12:03;;;;;;;6.50;2.88;;;6.40;99.10;;;;;;5051318;28;20028;-77
2021/12/07 13:14:33;;;;;;;7.30;3.03;;;6.40;99.00;;;;;;5052914;28;20021;-77
2021/12/07 13:17:17;;;;;;;6.22;2.70;;;6.50;99.10;;;;;;5052435;28;20021;-77
2021/12/07 13:20:19;;;;;;;8.43;3.05;;;6.50;99.10;;;;;;5050777;28;20515;-75
2021/12/07 13:23:02;;;;;;;6.32;2.75;;;6.50;99.10;;;;;;5052259;28;20076;-76
2021/12/07 13:25:48;;;;;;;7.65;2.63;;;6.50;99.00;;;;;;5052636;28;20025;-77
2021/12/07 13:28:22;;;;;;;6.88;2.85;;;6.50;99.00;;;;;;5052585;28;20021;-77
2021/12/07 13:30:50;;;;;;;6.90;2.85;;;6.40;99.00;;;;;;5052070;28;20025;-77
2021/12/07 13:33:40;;;;;;;5.93;2.53;;;6.50;99.10;;;;;;5051373;28;20021;-78
2021/12/07 13:36:46;;;;;;;8.30;2.67;;;6.40;99.10;;;;;;5052331;28;20035;-78
2021/12/07 13:39:19;;;;;;;6.85;3.15;;;6.40;99.10;;;;;;5052850;28;20025;-77
2021/12/07 13:41:49;;;;;;;6.10;2.20;;;6.40;99.10;;;;;;5051737;28;20040;-77
2021/12/07 13:44:16;;;;;;;4.78;2.42;;;6.40;99.10;;;;;;5052491;28;20048;-78
2021/12/07 13:46:42;;;;;;;3.95;2.05;;;6.40;99.20;;;;;;5050783;28;20433;-78
2021/12/07 13:49:11;;;;;;;4.72;2.53;;;6.30;99.20;;;;;;5051034;28;20453;-78
2021/12/07 13:51:38;;;;;;;6.05;2.88;;;6.30;99.20;;;;;;5067636;28;20064;-75
2021/12/07 13:54:06;;;;;;;5.25;2.55;;;6.30;99.20;;;;;;5050565;28;20021;-76
2021/12/07 13:56:36;;;;;;;5.43;2.33;;;6.30;99.20;;;;;;5052209;28;20104;-77
2021/12/07 13:59:07;;;;;;;6.32;2.58;;;6.30;99.30;;;;;;5050623;28;20013;-77
2021/12/07 14:01:34;;;;;;;;;;;6.30;99.30;;;;;;5071579;28;20057;-78
2021/12/07 14:04:02;;;;;;;6.07;2.28;;;6.20;99.30;;;;;;5071776;28;19909;-77
2021/12/07 14:06:28;;;;;;;5.95;2.58;;;6.20;99.20;;;;;;5072439;28;20055;-78
2021/12/07 14:09:05;;;;;;;4.72;2.03;;;6.20;99.30;;;;;;5071704;28;20021;-78
2021/12/07 14:11:31;;;;;;;5.70;2.17;;;6.10;99.30;;;;;;5072264;28;20025;-78
2021/12/07 14:13:57;;;;;;;10.02;3.17;;;6.10;99.30;;;;;;5072081;28;20021;-78
2021/12/07 14:16:25;;;;;;;8.77;2.53;;;6.10;99.30;;;;;;5073462;28;20357;-78
2021/12/07 14:18:50;;;;;;;7.40;2.50;;;6.10;99.30;;;;;;5075999;28;20020;-76
2021/12/07 14:21:16;;;;;;;6.68;2.30;;;6.10;99.30;;;;;;5076810;28;20046;-77
2021/12/07 14:23:45;;;;;;;4.93;2.10;;;6.10;99.30;;;;;;5058799;28;20029;-77
2021/12/07 14:26:15;;;;;;;9.80;3.42;;;6.00;99.40;;;;;;5076811;28;20016;-77
2021/12/07 14:28:53;;;;;;;10.32;2.67;;;6.00;99.40;;;;;;5081034;28;20032;-76
2021/12/07 14:31:25;;;;;;;4.32;1.90;;;5.90;99.40;;;;;;5066325;28;20036;-77
2021/12/07 14:33:52;;;;;;;6.22;2.55;;;5.90;99.40;;;;;;5064807;28;20025;-76
2021/12/07 14:36:31;;;;;;;8.75;2.92;;;5.90;99.50;;;;;;5079426;28;20051;-77
2021/12/07 14:38:59;;;;;;;8.38;2.50;;;5.90;99.50;;;;;;5058144;28;20375;-77
2021/12/07 14:41:27;;;;;;;6.47;2.38;;;5.80;99.50;;;;;;5076176;28;20033;-77
2021/12/07 14:43:54;;;;;;;5.53;2.50;;;5.80;99.60;;;;;;5057547;28;20024;-77
2021/12/07 14:46:22;;;;;;;4.85;2.03;;;5.70;99.60;;;;;;5057778;28;20372;-77
2021/12/07 14:48:49;;;;;;;9.00;2.42;;;5.70;99.60;;;;;;5057328;28;20377;-76
2021/12/07 14:51:22;;;;;;;5.25;2.08;;;5.70;99.70;;;;;;5075397;28;20035;-76
2021/12/07 14:53:52;;;;;;;6.05;2.60;;;5.70;99.60;;;;;;5057126;28;20033;-76